createdAt,value
2022-10-03T00:00:12.350Z,54684.19
2022-10-03T00:02:58.960Z,54855.22
2022-10-03T00:05:42.340Z,54688.16
2022-10-03T00:08:22.176Z,54668.28
2022-10-03T00:11:03.039Z,54628.50
2022-10-03T00:13:42.040Z,54600.66
2022-10-03T00:16:16.918Z,54678.22
2022-10-03T00:18:57.525Z,54747.84
2022-10-03T00:21:50.529Z,54688.16
2022-10-03T00:24:28.875Z,54684.19
2022-10-03T00:27:07.152Z,54704.09
2022-10-03T00:30:06.133Z,54700.09
2022-10-03T00:32:48.180Z,54698.13
2022-10-03T00:35:31.664Z,54725.97
2022-10-03T00:38:17.575Z,54692.16
2022-10-03T00:41:13.135Z,54676.25
2022-10-03T00:44:08.187Z,54749.81
2022-10-03T00:46:58.153Z,54614.59
2022-10-03T00:50:00.405Z,54602.66
2022-10-03T00:52:47.324Z,54674.25
2022-10-03T00:55:24.902Z,54648.41
2022-10-03T00:58:04.847Z,54686.19
2022-10-03T01:00:34.675Z,54682.22
2022-10-03T01:03:33.766Z,54668.28
2022-10-03T01:06:27.281Z,54640.44
2022-10-03T01:09:21.410Z,54690.16
2022-10-03T01:12:00.388Z,54684.19
2022-10-03T01:14:50.424Z,54712.03
2022-10-03T01:17:29.191Z,54672.25
2022-10-03T01:20:08.728Z,54670.28
2022-10-03T01:23:03.711Z,54648.41
2022-10-03T01:25:40.955Z,54648.41
2022-10-03T01:28:57.895Z,54727.94
2022-10-03T01:31:34.499Z,54704.09
2022-10-03T01:34:12.416Z,54837.34
2022-10-03T01:36:50.013Z,54851.25
2022-10-03T01:39:28.000Z,54819.44
2022-10-03T01:42:02.941Z,54803.53
2022-10-03T01:44:42.627Z,54815.47
2022-10-03T01:47:23.533Z,54851.25
2022-10-03T01:49:59.463Z,54783.63
2022-10-03T01:52:39.085Z,54777.66
2022-10-03T01:55:16.993Z,54753.81
2022-10-03T01:57:53.643Z,54809.50
2022-10-03T02:00:26.251Z,54775.69
2022-10-03T02:03:03.997Z,54789.59
2022-10-03T02:05:42.949Z,55034.22
2022-10-03T02:08:25.089Z,55165.50
2022-10-03T02:11:01.667Z,55048.16
2022-10-03T02:13:44.517Z,54992.47
2022-10-03T02:16:24.519Z,55026.28
2022-10-03T02:18:59.927Z,55440.00
2022-10-03T02:21:32.256Z,55617.06
2022-10-03T02:24:22.517Z,55617.06
2022-10-03T02:27:35.617Z,55445.97
2022-10-03T02:30:11.650Z,55400.22
2022-10-03T02:33:34.679Z,55455.91
2022-10-03T02:36:40.872Z,55603.13
2022-10-03T02:39:59.981Z,55630.97
2022-10-03T02:43:07.033Z,55499.69
2022-10-03T02:46:06.178Z,55384.31
2022-10-03T02:48:58.172Z,55278.88
2022-10-03T02:52:06.214Z,55366.41
2022-10-03T02:55:00.081Z,55613.06
2022-10-03T02:58:06.015Z,55678.72
2022-10-03T03:00:49.384Z,55630.97
2022-10-03T03:03:54.187Z,55519.56
2022-10-03T03:06:53.979Z,55499.69
2022-10-03T03:10:08.809Z,55587.22
2022-10-03T03:13:08.859Z,55764.25
2022-10-03T03:16:15.455Z,55642.91
2022-10-03T03:18:48.283Z,55491.72
2022-10-03T03:21:34.383Z,55545.44
2022-10-03T03:24:46.888Z,55778.19
2022-10-03T03:27:38.045Z,56006.97
2022-10-03T03:30:11.722Z,55931.38
2022-10-03T03:32:58.897Z,55479.78
2022-10-03T03:35:41.259Z,55434.03
2022-10-03T03:38:25.705Z,55390.28
2022-10-03T03:41:07.178Z,55326.63
2022-10-03T03:43:49.442Z,55386.28
2022-10-03T03:46:30.002Z,55455.91
2022-10-03T03:49:20.443Z,55350.50
2022-10-03T03:52:02.959Z,55221.19
2022-10-03T03:55:06.572Z,55191.38
2022-10-03T03:57:51.941Z,55264.97
2022-10-03T04:00:31.394Z,55489.75
2022-10-03T04:03:21.757Z,55221.19
2022-10-03T04:06:13.528Z,55145.63
2022-10-03T04:09:01.004Z,55266.94
2022-10-03T04:11:39.119Z,55169.50
2022-10-03T04:14:41.150Z,55199.31
2022-10-03T04:17:44.060Z,55131.69
2022-10-03T04:20:22.307Z,55249.06
2022-10-03T04:23:08.431Z,55161.53
2022-10-03T04:26:02.426Z,55115.78
2022-10-03T04:28:53.525Z,55229.16
2022-10-03T04:31:42.133Z,55173.47
2022-10-03T04:34:26.020Z,55038.22
2022-10-03T04:37:31.021Z,55201.31
2022-10-03T04:40:12.905Z,55223.19
2022-10-03T04:42:52.570Z,55093.91
2022-10-03T04:45:40.206Z,54932.78
2022-10-03T04:48:18.039Z,54916.88
2022-10-03T04:51:00.289Z,55030.25
2022-10-03T04:53:42.979Z,55113.78
2022-10-03T04:56:24.965Z,55185.41
2022-10-03T04:59:04.866Z,55189.38
2022-10-03T05:01:44.713Z,55237.13
2022-10-03T05:04:27.140Z,55091.91
2022-10-03T05:07:06.312Z,55093.91
2022-10-03T05:09:41.375Z,55288.84
2022-10-03T05:12:17.975Z,55499.69
2022-10-03T05:15:07.498Z,55501.66
2022-10-03T05:17:47.944Z,55442.00
2022-10-03T05:20:47.188Z,55461.88
2022-10-03T05:23:31.406Z,55471.84
2022-10-03T05:26:39.801Z,55270.94
2022-10-03T05:29:06.470Z,55290.81
2022-10-03T05:31:47.760Z,55400.22
2022-10-03T05:34:30.933Z,55447.97
2022-10-03T05:37:24.591Z,55710.56
2022-10-03T05:40:01.178Z,55666.78
2022-10-03T05:42:55.562Z,55658.81
2022-10-03T05:45:31.868Z,55792.13
2022-10-03T05:48:15.029Z,55921.44
2022-10-03T05:51:18.376Z,56005.00
2022-10-03T05:54:28.589Z,56180.06
2022-10-03T05:57:17.801Z,56438.72
2022-10-03T06:00:10.882Z,56478.53
2022-10-03T06:03:06.470Z,56410.88
2022-10-03T06:06:08.062Z,56685.47
2022-10-03T06:09:26.965Z,56657.63
2022-10-03T06:12:11.305Z,56892.44
2022-10-03T06:15:12.571Z,57326.28
2022-10-03T06:17:58.082Z,57551.22
2022-10-03T06:21:06.286Z,57714.44
2022-10-03T06:24:15.554Z,57855.75
2022-10-03T06:27:15.154Z,57931.41
2022-10-03T06:30:20.252Z,58544.56
2022-10-03T06:33:33.138Z,59058.31
2022-10-03T06:36:36.878Z,59870.84
2022-10-03T06:40:10.071Z,60870.88
2022-10-03T06:43:00.213Z,61628.06
2022-10-03T06:46:19.602Z,61454.72
2022-10-03T06:49:25.661Z,61827.38
2022-10-03T06:52:20.140Z,62068.53
2022-10-03T06:55:30.284Z,63001.41
2022-10-03T06:58:28.786Z,63589.59
2022-10-03T07:01:20.315Z,64175.88
2022-10-03T07:04:19.058Z,64991.63
2022-10-03T07:07:07.547Z,65021.56
2022-10-03T07:10:01.232Z,64498.97
2022-10-03T07:12:52.579Z,64852.00
2022-10-03T07:16:08.818Z,65865.47
2022-10-03T07:19:04.498Z,67651.75
2022-10-03T07:22:18.800Z,68963.59
2022-10-03T07:25:25.475Z,68987.56
2022-10-03T07:28:24.777Z,69852.44
2022-10-03T07:31:04.065Z,70931.31
2022-10-03T07:34:07.607Z,70755.47
2022-10-03T07:37:20.762Z,71954.59
2022-10-03T07:40:30.748Z,72978.16
2022-10-03T07:43:35.326Z,74258.06
2022-10-03T07:46:41.712Z,75282.31
2022-10-03T07:49:33.308Z,76306.91
2022-10-03T07:52:30.620Z,71372.97
2022-10-03T07:55:28.786Z,71442.94
2022-10-03T07:58:45.697Z,73746.06
2022-10-03T08:01:41.955Z,76306.91
2022-10-03T08:04:45.768Z,75538.44
2022-10-03T08:07:32.667Z,75026.22
2022-10-03T08:10:18.855Z,70701.53
2022-10-03T08:13:25.041Z,70917.34
2022-10-03T08:16:18.539Z,71698.75
2022-10-03T08:19:15.241Z,72978.16
2022-10-03T08:22:05.422Z,71682.75
2022-10-03T08:25:14.716Z,71954.59
2022-10-03T08:27:56.923Z,72210.47
2022-10-03T08:30:28.916Z,72722.25
2022-10-03T08:33:16.689Z,73746.06
2022-10-03T08:36:20.297Z,73746.06
2022-10-03T08:39:01.723Z,72210.47
2022-10-03T08:42:00.621Z,69488.88
2022-10-03T08:45:11.143Z,69508.84
2022-10-03T08:48:31.771Z,66406.25
2022-10-03T08:51:41.729Z,66142.84
2022-10-03T08:54:27.910Z,67232.53
2022-10-03T08:57:18.974Z,66218.66
2022-10-03T09:00:15.304Z,63922.59
2022-10-03T09:03:34.274Z,63509.81
2022-10-03T09:07:12.100Z,60693.56
2022-10-03T09:10:14.047Z,59462.56
2022-10-03T09:13:09.596Z,59199.69
2022-10-03T09:16:20.944Z,59771.28
2022-10-03T09:19:18.756Z,58090.66
2022-10-03T09:22:09.665Z,58793.47
2022-10-03T09:25:20.366Z,55533.50
2022-10-03T09:28:31.677Z,54704.09
2022-10-03T09:31:12.822Z,54723.97
2022-10-03T09:34:17.414Z,54646.41
2022-10-03T09:37:40.011Z,54755.78
2022-10-03T09:40:31.423Z,55002.41
2022-10-03T09:43:41.714Z,55097.88
2022-10-03T09:47:10.255Z,55085.94
2022-10-03T09:50:19.499Z,54537.03
2022-10-03T09:53:13.303Z,54704.09
2022-10-03T09:56:01.786Z,54696.13
2022-10-03T09:59:05.489Z,54648.41
2022-10-03T10:01:41.632Z,54278.50
2022-10-03T10:05:01.462Z,54278.50
2022-10-03T10:08:12.594Z,54127.38
2022-10-03T10:11:04.798Z,54043.88
2022-10-03T10:14:11.127Z,54057.78
2022-10-03T10:16:55.086Z,54216.88
2022-10-03T10:19:47.221Z,54310.34
2022-10-03T10:23:08.156Z,54063.75
2022-10-03T10:26:21.493Z,53938.50
2022-10-03T10:29:18.618Z,53962.34
2022-10-03T10:32:36.054Z,54091.59
2022-10-03T10:35:59.938Z,54000.13
2022-10-03T10:39:10.792Z,53868.91
2022-10-03T10:42:43.550Z,53874.88
2022-10-03T10:45:57.065Z,53793.34
2022-10-03T10:49:18.924Z,53745.63
2022-10-03T10:52:26.909Z,53606.47
2022-10-03T10:55:45.966Z,53596.53
2022-10-03T10:58:47.034Z,53648.22
2022-10-03T11:01:53.050Z,53600.50
2022-10-03T11:05:09.487Z,53552.78
2022-10-03T11:08:19.229Z,53554.78
2022-10-03T11:11:07.078Z,53634.28
2022-10-03T11:14:10.868Z,53606.47
2022-10-03T11:17:16.033Z,53614.41
2022-10-03T11:20:34.209Z,53600.50
2022-10-03T11:23:39.570Z,53522.97
2022-10-03T11:27:01.969Z,53515.00
2022-10-03T11:30:18.816Z,53491.16
2022-10-03T11:33:21.439Z,53501.09
2022-10-03T11:36:34.542Z,53507.06
2022-10-03T11:39:06.165Z,53495.13
2022-10-03T11:41:52.557Z,53469.28
2022-10-03T11:44:24.627Z,53483.19
2022-10-03T11:47:03.546Z,53495.13
2022-10-03T11:50:00.087Z,53429.53
2022-10-03T11:52:34.513Z,53463.31
2022-10-03T11:55:21.351Z,53443.44
2022-10-03T11:58:01.923Z,53457.34
2022-10-03T12:00:37.379Z,53461.31
2022-10-03T12:03:19.917Z,53437.47
2022-10-03T12:06:17.819Z,53433.50
2022-10-03T12:09:00.590Z,53453.38
2022-10-03T12:11:34.215Z,53431.50
2022-10-03T12:14:22.202Z,53421.56
2022-10-03T12:17:05.495Z,53411.63
2022-10-03T12:19:42.740Z,53419.59
2022-10-03T12:22:24.106Z,53409.63
2022-10-03T12:25:02.514Z,53425.53
2022-10-03T12:27:39.622Z,53411.63
2022-10-03T12:30:16.430Z,53409.63
2022-10-03T12:33:00.929Z,53391.75
2022-10-03T12:35:42.120Z,53399.69
2022-10-03T12:38:27.428Z,53397.72
2022-10-03T12:41:08.280Z,53405.66
2022-10-03T12:43:50.710Z,53399.69
2022-10-03T12:46:31.879Z,53371.88
2022-10-03T12:49:05.015Z,53375.84
2022-10-03T12:51:53.206Z,53401.69
2022-10-03T12:54:52.897Z,53395.72
2022-10-03T12:57:54.918Z,53407.66
2022-10-03T13:00:27.034Z,53401.69
2022-10-03T13:03:15.239Z,53381.81
2022-10-03T13:06:07.478Z,53363.91
2022-10-03T13:09:01.340Z,53353.97
2022-10-03T13:11:46.045Z,53371.88
2022-10-03T13:14:29.449Z,53308.25
2022-10-03T13:17:10.185Z,53399.69
2022-10-03T13:19:49.758Z,53338.06
2022-10-03T13:22:32.529Z,53336.09
2022-10-03T13:25:05.489Z,53355.97
2022-10-03T13:27:42.366Z,53367.91
2022-10-03T13:30:21.361Z,53340.06
2022-10-03T13:32:56.108Z,53322.16
2022-10-03T13:35:53.994Z,53340.06
2022-10-03T13:38:46.301Z,53359.94
2022-10-03T13:41:28.227Z,53344.03
2022-10-03T13:44:00.769Z,53385.78
2022-10-03T13:46:40.725Z,53391.75
2022-10-03T13:49:19.035Z,53379.81
2022-10-03T13:51:57.247Z,53391.75
2022-10-03T13:54:48.061Z,53371.88
2022-10-03T13:57:20.163Z,53403.69
2022-10-03T14:00:04.841Z,53389.75
2022-10-03T14:02:52.148Z,53399.69
2022-10-03T14:05:43.322Z,53353.97
2022-10-03T14:08:23.896Z,53324.16
2022-10-03T14:11:07.707Z,53300.31
2022-10-03T14:13:52.683Z,53350.00
2022-10-03T14:16:28.383Z,53302.28
2022-10-03T14:19:06.075Z,53310.25
2022-10-03T14:22:09.778Z,53320.19
2022-10-03T14:24:46.789Z,53296.31
2022-10-03T14:27:49.226Z,53312.22
2022-10-03T14:30:23.174Z,53332.09
2022-10-03T14:33:10.999Z,53324.16
2022-10-03T14:35:47.140Z,53340.06
2022-10-03T14:38:48.573Z,53332.09
2022-10-03T14:41:21.815Z,53373.84
2022-10-03T14:43:53.382Z,53355.97
2022-10-03T14:46:25.969Z,53387.78
2022-10-03T14:48:59.967Z,53369.88
2022-10-03T14:51:35.000Z,53401.69
2022-10-03T14:54:08.541Z,53381.81
2022-10-03T14:56:46.446Z,53395.72
2022-10-03T14:59:20.636Z,53379.81
2022-10-03T15:01:52.974Z,53415.59
2022-10-03T15:04:33.755Z,53395.72
2022-10-03T15:07:04.549Z,53403.69
2022-10-03T15:09:43.488Z,53409.63
2022-10-03T15:12:16.883Z,53401.69
2022-10-03T15:14:50.841Z,53383.78
2022-10-03T15:17:23.221Z,53427.53
2022-10-03T15:19:55.504Z,53403.69
2022-10-03T15:22:33.740Z,53397.72
2022-10-03T15:25:08.119Z,53373.84
2022-10-03T15:27:41.202Z,53403.69
2022-10-03T15:30:22.464Z,53395.72
2022-10-03T15:32:53.102Z,53443.44
2022-10-03T15:35:27.431Z,53437.47
2022-10-03T15:38:06.902Z,53425.53
2022-10-03T15:40:39.821Z,53419.59
2022-10-03T15:43:24.154Z,53443.44
2022-10-03T15:45:53.423Z,53421.56
2022-10-03T15:48:26.219Z,53433.50
2022-10-03T15:50:58.548Z,53441.44
2022-10-03T15:53:36.446Z,53447.41
2022-10-03T15:56:15.211Z,53455.38
2022-10-03T15:58:49.541Z,53467.28
2022-10-03T16:01:22.183Z,53441.44
2022-10-03T16:03:53.825Z,53437.47
2022-10-03T16:06:26.212Z,53487.19
2022-10-03T16:09:01.461Z,53487.19
2022-10-03T16:11:35.066Z,53483.19
2022-10-03T16:14:15.793Z,53441.44
2022-10-03T16:16:49.540Z,53487.19
2022-10-03T16:19:32.887Z,53487.19
2022-10-03T16:22:25.884Z,53477.22
2022-10-03T16:25:06.438Z,53495.13
2022-10-03T16:27:38.612Z,53479.22
2022-10-03T16:30:21.626Z,53463.31
2022-10-03T16:32:58.239Z,53483.19
2022-10-03T16:35:34.610Z,53515.00
2022-10-03T16:38:06.859Z,53493.13
2022-10-03T16:40:39.142Z,53513.03
2022-10-03T16:43:11.590Z,53542.84
2022-10-03T16:45:45.918Z,53566.69
2022-10-03T16:48:38.164Z,53524.94
2022-10-03T16:51:15.112Z,53534.88
2022-10-03T16:53:45.050Z,53532.91
2022-10-03T16:56:18.742Z,53570.69
2022-10-03T16:58:54.071Z,53564.72
2022-10-03T17:01:32.980Z,53594.53
2022-10-03T17:04:16.893Z,53626.34
2022-10-03T17:06:48.839Z,53610.44
2022-10-03T17:09:26.334Z,53636.28
2022-10-03T17:12:00.853Z,53642.25
2022-10-03T17:14:35.715Z,53662.13
2022-10-03T17:17:08.890Z,53693.94
2022-10-03T17:19:42.595Z,53713.81
2022-10-03T17:22:19.619Z,53680.03
2022-10-03T17:24:54.056Z,53699.91
2022-10-03T17:27:29.626Z,53747.63
2022-10-03T17:30:03.244Z,53727.75
2022-10-03T17:32:38.385Z,53817.22
2022-10-03T17:35:15.453Z,53767.50
2022-10-03T17:38:19.575Z,53777.44
2022-10-03T17:41:00.257Z,53805.28
2022-10-03T17:43:37.612Z,53811.25
2022-10-03T17:46:13.869Z,53845.03
2022-10-03T17:48:51.681Z,53862.94
2022-10-03T17:51:32.651Z,53862.94
2022-10-03T17:54:04.381Z,53900.72
2022-10-03T17:56:35.058Z,53976.28
2022-10-03T17:59:09.130Z,53972.28
2022-10-03T18:01:43.130Z,53956.38
2022-10-03T18:04:19.082Z,53938.50
2022-10-03T18:06:50.695Z,53954.41
2022-10-03T18:09:28.259Z,53970.31
2022-10-03T18:12:12.603Z,53996.16
2022-10-03T18:14:54.002Z,54004.09
2022-10-03T18:17:32.538Z,54016.03
2022-10-03T18:20:15.547Z,53996.16
2022-10-03T18:22:49.135Z,53990.19
2022-10-03T18:25:41.393Z,54035.91
2022-10-03T18:28:18.622Z,54055.81
2022-10-03T18:30:53.707Z,54091.59
2022-10-03T18:33:29.248Z,54131.38
2022-10-03T18:35:58.720Z,54135.34
2022-10-03T18:38:30.685Z,54103.53
2022-10-03T18:41:01.097Z,54147.28
2022-10-03T18:43:33.740Z,54175.13
2022-10-03T18:46:14.164Z,54157.22
2022-10-03T18:49:09.132Z,54210.91
2022-10-03T18:51:40.790Z,54252.66
2022-10-03T18:54:26.382Z,54238.75
2022-10-03T18:57:07.463Z,54328.22
2022-10-03T18:59:45.270Z,54258.63
2022-10-03T19:02:24.621Z,54268.56
2022-10-03T19:04:56.947Z,54306.34
2022-10-03T19:07:27.756Z,54316.28
2022-10-03T19:10:31.729Z,54314.31
2022-10-03T19:13:12.045Z,54312.31
2022-10-03T19:15:51.416Z,54334.19
2022-10-03T19:18:27.880Z,54350.09
2022-10-03T19:21:00.187Z,54381.91
2022-10-03T19:23:36.197Z,54381.91
2022-10-03T19:26:11.100Z,54401.81
2022-10-03T19:28:48.343Z,54387.88
2022-10-03T19:31:22.849Z,54413.72
2022-10-03T19:33:55.857Z,54401.81
2022-10-03T19:36:29.047Z,54377.94
2022-10-03T19:38:59.161Z,54548.97
2022-10-03T19:41:31.973Z,54449.53
2022-10-03T19:44:06.298Z,54391.84
2022-10-03T19:46:59.180Z,54393.84
2022-10-03T19:49:48.944Z,54352.09
2022-10-03T19:52:26.807Z,54354.06
2022-10-03T19:55:01.934Z,54377.94
2022-10-03T19:57:40.455Z,54413.72
2022-10-03T20:00:22.680Z,54342.16
2022-10-03T20:02:57.179Z,54385.91
2022-10-03T20:05:58.800Z,54346.13
2022-10-03T20:08:36.609Z,54274.53
2022-10-03T20:11:17.844Z,54322.25
2022-10-03T20:13:49.107Z,54298.41
2022-10-03T20:16:25.797Z,54242.72
2022-10-03T20:18:58.083Z,54270.56
2022-10-03T20:21:33.554Z,54391.84
2022-10-03T20:24:03.430Z,54403.78
2022-10-03T20:26:38.619Z,54371.97
2022-10-03T20:29:33.446Z,54425.66
2022-10-03T20:32:03.506Z,54421.69
2022-10-03T20:34:34.835Z,54429.66
2022-10-03T20:37:27.200Z,54485.31
2022-10-03T20:40:04.234Z,54678.22
2022-10-03T20:42:33.528Z,54636.47
2022-10-03T20:45:05.349Z,54616.56
2022-10-03T20:47:59.897Z,54616.56
2022-10-03T20:50:34.442Z,54558.91
2022-10-03T20:53:11.668Z,54594.69
2022-10-03T20:55:49.434Z,54775.69
2022-10-03T20:58:24.071Z,54885.06
2022-10-03T21:00:59.391Z,54823.41
2022-10-03T21:03:34.360Z,54847.28
2022-10-03T21:06:05.682Z,54867.16
2022-10-03T21:08:39.185Z,54859.22
2022-10-03T21:11:20.741Z,54966.59
2022-10-03T21:13:54.308Z,54962.63
2022-10-03T21:16:25.525Z,55000.41
2022-10-03T21:18:59.026Z,55113.78
2022-10-03T21:21:31.475Z,55171.47
2022-10-03T21:24:07.751Z,55097.88
2022-10-03T21:26:46.459Z,55099.88
2022-10-03T21:29:26.744Z,55089.94
2022-10-03T21:32:08.806Z,55193.34
2022-10-03T21:34:45.503Z,55352.47
2022-10-03T21:37:19.646Z,55368.41
2022-10-03T21:40:01.073Z,55300.75
2022-10-03T21:42:35.399Z,55374.38
2022-10-03T21:45:21.590Z,55497.69
2022-10-03T21:47:55.346Z,55455.91
2022-10-03T21:50:28.723Z,55455.91
2022-10-03T21:53:16.006Z,55770.22
2022-10-03T21:55:58.094Z,55913.47
2022-10-03T21:58:50.917Z,55913.47
2022-10-03T22:01:26.309Z,55859.75
2022-10-03T22:04:01.592Z,56144.25
2022-10-03T22:06:37.208Z,56355.16
2022-10-03T22:09:15.611Z,56265.63
2022-10-03T22:11:52.703Z,56387.00
2022-10-03T22:14:31.885Z,56691.44
2022-10-03T22:17:07.865Z,56540.22
2022-10-03T22:19:41.106Z,56329.28
2022-10-03T22:22:21.172Z,56321.34
2022-10-03T22:24:59.569Z,56514.34
2022-10-03T22:27:36.666Z,56307.41
2022-10-03T22:30:08.438Z,56892.44
2022-10-03T22:32:45.448Z,56741.19
2022-10-03T22:35:28.535Z,56410.88
2022-10-03T22:37:57.864Z,56518.31
2022-10-03T22:40:27.474Z,56705.38
2022-10-03T22:43:02.155Z,57007.84
2022-10-03T22:45:36.615Z,57127.28
2022-10-03T22:48:11.227Z,56675.53
2022-10-03T22:50:42.342Z,56695.41
2022-10-03T22:53:14.790Z,56691.44
2022-10-03T22:55:49.818Z,56468.56
2022-10-03T22:58:21.312Z,56295.47
2022-10-03T23:00:52.935Z,56387.00
2022-10-03T23:03:26.658Z,56745.16
2022-10-03T23:06:12.261Z,56725.28
2022-10-03T23:08:50.190Z,56691.44
2022-10-03T23:11:24.502Z,56524.28
2022-10-03T23:13:57.917Z,56675.53
2022-10-03T23:16:51.798Z,56709.34
2022-10-03T23:19:36.252Z,56609.84
2022-10-03T23:22:07.748Z,56426.78
2022-10-03T23:24:43.062Z,56426.78
2022-10-03T23:27:37.902Z,56470.56
2022-10-03T23:30:55.432Z,56683.47
2022-10-03T23:33:51.274Z,56729.25
2022-10-03T23:36:24.557Z,56936.22
2022-10-03T23:38:59.627Z,57356.16
2022-10-03T23:42:01.106Z,57326.28
2022-10-03T23:44:36.871Z,56820.78
2022-10-03T23:47:07.841Z,56617.81
2022-10-03T23:49:40.769Z,56779.00
2022-10-03T23:52:18.523Z,56673.53
2022-10-03T23:54:49.324Z,56619.81
2022-10-03T23:57:20.245Z,56530.25
2022-10-03T23:59:50.148Z,56675.53
